sensor_id;sensor_type;location;lat;lon;timestamp;temperature;humidity
43183;DHT22;28802;38.578;-0.066;2023-07-30T00:02:18;27.60;99.90
43183;DHT22;28802;38.578;-0.066;2023-07-30T00:04:45;27.70;99.90
43183;DHT22;28802;38.578;-0.066;2023-07-30T00:07:11;27.60;99.90
43183;DHT22;28802;38.578;-0.066;2023-07-30T00:09:38;27.60;99.90
43183;DHT22;28802;38.578;-0.066;2023-07-30T00:12:05;27.50;99.90
43183;DHT22;28802;38.578;-0.066;2023-07-30T00:14:32;27.50;99.90
43183;DHT22;28802;38.578;-0.066;2023-07-30T00:16:57;27.50;99.90
43183;DHT22;28802;38.578;-0.066;2023-07-30T00:19:23;27.40;99.90
43183;DHT22;28802;38.578;-0.066;2023-07-30T00:21:49;27.30;99.90
43183;DHT22;28802;38.578;-0.066;2023-07-30T00:24:15;27.30;99.90
43183;DHT22;28802;38.578;-0.066;2023-07-30T00:26:41;27.20;99.90
43183;DHT22;28802;38.578;-0.066;2023-07-30T00:29:07;27.20;99.90
43183;DHT22;28802;38.578;-0.066;2023-07-30T00:31:33;27.10;99.90
43183;DHT22;28802;38.578;-0.066;2023-07-30T00:33:59;27.10;99.90
43183;DHT22;28802;38.578;-0.066;2023-07-30T00:36:25;27.10;99.90
43183;DHT22;28802;38.578;-0.066;2023-07-30T00:38:51;27.20;99.90
43183;DHT22;28802;38.578;-0.066;2023-07-30T00:41:17;27.20;99.90
43183;DHT22;28802;38.578;-0.066;2023-07-30T00:43:43;27.20;99.90
43183;DHT22;28802;38.578;-0.066;2023-07-30T00:46:09;27.20;99.90
43183;DHT22;28802;38.578;-0.066;2023-07-30T00:48:35;27.20;99.90
43183;DHT22;28802;38.578;-0.066;2023-07-30T00:51:03;27.30;99.90
43183;DHT22;28802;38.578;-0.066;2023-07-30T00:53:31;27.30;99.90
43183;DHT22;28802;38.578;-0.066;2023-07-30T00:55:57;27.30;99.90
43183;DHT22;28802;38.578;-0.066;2023-07-30T00:58:23;27.30;99.90
43183;DHT22;28802;38.578;-0.066;2023-07-30T01:00:51;27.20;99.90
43183;DHT22;28802;38.578;-0.066;2023-07-30T01:03:18;27.20;99.90
43183;DHT22;28802;38.578;-0.066;2023-07-30T01:05:45;27.20;99.90
43183;DHT22;28802;38.578;-0.066;2023-07-30T01:08:11;27.10;99.90
43183;DHT22;28802;38.578;-0.066;2023-07-30T01:10:38;27.10;99.90
43183;DHT22;28802;38.578;-0.066;2023-07-30T01:13:07;27.10;99.90
43183;DHT22;28802;38.578;-0.066;2023-07-30T01:15:34;27.10;99.90
43183;DHT22;28802;38.578;-0.066;2023-07-30T01:18:00;27.20;99.90
43183;DHT22;28802;38.578;-0.066;2023-07-30T01:20:30;27.10;99.90
43183;DHT22;28802;38.578;-0.066;2023-07-30T01:22:58;27.10;99.90
43183;DHT22;28802;38.578;-0.066;2023-07-30T01:25:24;27.10;99.90
43183;DHT22;28802;38.578;-0.066;2023-07-30T01:27:55;27.10;99.90
43183;DHT22;28802;38.578;-0.066;2023-07-30T01:30:30;27.10;99.90
43183;DHT22;28802;38.578;-0.066;2023-07-30T01:32:58;27.10;99.90
43183;DHT22;28802;38.578;-0.066;2023-07-30T01:35:27;27.10;99.90
43183;DHT22;28802;38.578;-0.066;2023-07-30T01:37:54;27.10;99.90
43183;DHT22;28802;38.578;-0.066;2023-07-30T01:40:21;27.20;99.90
43183;DHT22;28802;38.578;-0.066;2023-07-30T01:42:49;27.20;99.90
43183;DHT22;28802;38.578;-0.066;2023-07-30T01:45:16;27.20;99.90
43183;DHT22;28802;38.578;-0.066;2023-07-30T01:47:42;27.20;99.90
43183;DHT22;28802;38.578;-0.066;2023-07-30T01:50:08;27.20;99.90
43183;DHT22;28802;38.578;-0.066;2023-07-30T01:52:34;27.20;99.90
43183;DHT22;28802;38.578;-0.066;2023-07-30T01:55:00;27.20;99.90
43183;DHT22;28802;38.578;-0.066;2023-07-30T01:57:27;27.20;99.90
43183;DHT22;28802;38.578;-0.066;2023-07-30T01:59:57;27.20;99.90
43183;DHT22;28802;38.578;-0.066;2023-07-30T02:02:23;27.20;99.90
43183;DHT22;28802;38.578;-0.066;2023-07-30T02:04:49;27.10;99.90
43183;DHT22;28802;38.578;-0.066;2023-07-30T02:07:15;27.00;99.90
43183;DHT22;28802;38.578;-0.066;2023-07-30T02:09:40;26.80;99.90
43183;DHT22;28802;38.578;-0.066;2023-07-30T02:12:07;26.80;99.90
43183;DHT22;28802;38.578;-0.066;2023-07-30T02:14:33;26.70;99.90
43183;DHT22;28802;38.578;-0.066;2023-07-30T02:17:00;26.70;99.90
43183;DHT22;28802;38.578;-0.066;2023-07-30T02:19:26;26.70;99.90
43183;DHT22;28802;38.578;-0.066;2023-07-30T02:21:52;26.70;99.90
43183;DHT22;28802;38.578;-0.066;2023-07-30T02:24:18;26.70;99.90
43183;DHT22;28802;38.578;-0.066;2023-07-30T02:26:44;26.80;99.90
43183;DHT22;28802;38.578;-0.066;2023-07-30T02:29:09;26.80;99.90
43183;DHT22;28802;38.578;-0.066;2023-07-30T02:31:35;26.90;99.90
43183;DHT22;28802;38.578;-0.066;2023-07-30T02:34:01;26.90;99.90
43183;DHT22;28802;38.578;-0.066;2023-07-30T02:36:27;26.90;99.90
43183;DHT22;28802;38.578;-0.066;2023-07-30T02:38:53;26.90;99.90
43183;DHT22;28802;38.578;-0.066;2023-07-30T02:41:19;27.00;99.90
43183;DHT22;28802;38.578;-0.066;2023-07-30T02:43:44;27.00;99.90
43183;DHT22;28802;38.578;-0.066;2023-07-30T02:46:10;27.00;99.90
43183;DHT22;28802;38.578;-0.066;2023-07-30T02:48:37;27.00;99.90
43183;DHT22;28802;38.578;-0.066;2023-07-30T02:51:03;27.00;99.90
43183;DHT22;28802;38.578;-0.066;2023-07-30T02:53:29;27.00;99.90
43183;DHT22;28802;38.578;-0.066;2023-07-30T02:55:55;27.00;99.90
43183;DHT22;28802;38.578;-0.066;2023-07-30T02:58:21;26.90;99.90
43183;DHT22;28802;38.578;-0.066;2023-07-30T03:00:47;26.90;99.90
43183;DHT22;28802;38.578;-0.066;2023-07-30T03:03:12;27.00;99.90
43183;DHT22;28802;38.578;-0.066;2023-07-30T03:05:42;26.90;99.90
43183;DHT22;28802;38.578;-0.066;2023-07-30T03:08:08;26.80;99.90
43183;DHT22;28802;38.578;-0.066;2023-07-30T03:10:36;26.70;99.90
43183;DHT22;28802;38.578;-0.066;2023-07-30T03:13:02;26.60;99.90
43183;DHT22;28802;38.578;-0.066;2023-07-30T03:15:28;26.40;99.90
43183;DHT22;28802;38.578;-0.066;2023-07-30T03:17:54;26.40;99.90
43183;DHT22;28802;38.578;-0.066;2023-07-30T03:20:20;26.50;99.90
43183;DHT22;28802;38.578;-0.066;2023-07-30T03:22:45;26.50;99.90
43183;DHT22;28802;38.578;-0.066;2023-07-30T03:25:11;26.50;99.90
43183;DHT22;28802;38.578;-0.066;2023-07-30T03:27:37;26.60;99.90
43183;DHT22;28802;38.578;-0.066;2023-07-30T03:30:04;26.60;99.90
43183;DHT22;28802;38.578;-0.066;2023-07-30T03:32:30;26.70;99.90
43183;DHT22;28802;38.578;-0.066;2023-07-30T03:34:56;26.70;99.90
43183;DHT22;28802;38.578;-0.066;2023-07-30T03:37:22;26.70;99.90
43183;DHT22;28802;38.578;-0.066;2023-07-30T03:39:47;26.70;99.90
43183;DHT22;28802;38.578;-0.066;2023-07-30T03:42:13;26.70;99.90
43183;DHT22;28802;38.578;-0.066;2023-07-30T03:44:39;26.70;99.90
43183;DHT22;28802;38.578;-0.066;2023-07-30T03:47:05;26.70;99.90
43183;DHT22;28802;38.578;-0.066;2023-07-30T03:49:31;26.70;99.90
43183;DHT22;28802;38.578;-0.066;2023-07-30T03:51:57;26.50;99.90
43183;DHT22;28802;38.578;-0.066;2023-07-30T03:54:23;26.50;99.90
43183;DHT22;28802;38.578;-0.066;2023-07-30T03:56:49;26.50;99.90
43183;DHT22;28802;38.578;-0.066;2023-07-30T03:59:15;26.50;99.90
43183;DHT22;28802;38.578;-0.066;2023-07-30T04:01:41;26.50;99.90
43183;DHT22;28802;38.578;-0.066;2023-07-30T04:04:07;26.50;99.90
43183;DHT22;28802;38.578;-0.066;2023-07-30T04:06:32;26.50;99.90
43183;DHT22;28802;38.578;-0.066;2023-07-30T04:08:59;26.30;99.90
43183;DHT22;28802;38.578;-0.066;2023-07-30T04:11:29;26.30;99.90
43183;DHT22;28802;38.578;-0.066;2023-07-30T04:13:57;26.20;99.90
43183;DHT22;28802;38.578;-0.066;2023-07-30T04:16:23;26.20;99.90
43183;DHT22;28802;38.578;-0.066;2023-07-30T04:18:48;26.10;99.90
43183;DHT22;28802;38.578;-0.066;2023-07-30T04:21:14;26.10;99.90
43183;DHT22;28802;38.578;-0.066;2023-07-30T04:23:41;26.20;99.90
43183;DHT22;28802;38.578;-0.066;2023-07-30T04:26:07;26.20;99.90
43183;DHT22;28802;38.578;-0.066;2023-07-30T04:28:33;26.20;99.90
43183;DHT22;28802;38.578;-0.066;2023-07-30T04:30:59;26.10;99.90
43183;DHT22;28802;38.578;-0.066;2023-07-30T04:33:26;26.10;99.90
43183;DHT22;28802;38.578;-0.066;2023-07-30T04:35:53;26.20;99.90
43183;DHT22;28802;38.578;-0.066;2023-07-30T04:38:19;26.20;99.90
43183;DHT22;28802;38.578;-0.066;2023-07-30T04:40:45;26.30;99.90
43183;DHT22;28802;38.578;-0.066;2023-07-30T04:43:13;26.30;99.90
43183;DHT22;28802;38.578;-0.066;2023-07-30T04:45:40;26.30;99.90
43183;DHT22;28802;38.578;-0.066;2023-07-30T04:48:06;26.30;99.90
43183;DHT22;28802;38.578;-0.066;2023-07-30T04:50:31;26.30;99.90
43183;DHT22;28802;38.578;-0.066;2023-07-30T04:52:58;26.20;99.90
43183;DHT22;28802;38.578;-0.066;2023-07-30T04:55:24;26.20;99.90
43183;DHT22;28802;38.578;-0.066;2023-07-30T04:57:50;26.20;99.90
43183;DHT22;28802;38.578;-0.066;2023-07-30T05:00:16;26.20;99.90
43183;DHT22;28802;38.578;-0.066;2023-07-30T05:02:43;26.20;99.90
43183;DHT22;28802;38.578;-0.066;2023-07-30T05:05:09;26.20;99.90
43183;DHT22;28802;38.578;-0.066;2023-07-30T05:07:34;26.20;99.90
43183;DHT22;28802;38.578;-0.066;2023-07-30T05:10:00;26.10;99.90
43183;DHT22;28802;38.578;-0.066;2023-07-30T05:12:26;26.10;99.90
43183;DHT22;28802;38.578;-0.066;2023-07-30T05:14:52;26.20;99.90
43183;DHT22;28802;38.578;-0.066;2023-07-30T05:17:18;26.20;99.90
43183;DHT22;28802;38.578;-0.066;2023-07-30T05:19:44;26.30;99.90
43183;DHT22;28802;38.578;-0.066;2023-07-30T05:22:10;26.40;99.90
43183;DHT22;28802;38.578;-0.066;2023-07-30T05:24:36;26.50;99.90
43183;DHT22;28802;38.578;-0.066;2023-07-30T05:27:02;26.70;99.90
43183;DHT22;28802;38.578;-0.066;2023-07-30T05:29:28;26.80;99.90
43183;DHT22;28802;38.578;-0.066;2023-07-30T05:31:54;26.90;99.90
43183;DHT22;28802;38.578;-0.066;2023-07-30T05:34:20;27.10;99.90
43183;DHT22;28802;38.578;-0.066;2023-07-30T05:36:45;27.30;99.90
43183;DHT22;28802;38.578;-0.066;2023-07-30T05:39:12;27.50;99.90
43183;DHT22;28802;38.578;-0.066;2023-07-30T05:41:37;27.70;99.90
43183;DHT22;28802;38.578;-0.066;2023-07-30T05:44:03;28.00;99.90
43183;DHT22;28802;38.578;-0.066;2023-07-30T05:46:29;28.30;99.90
43183;DHT22;28802;38.578;-0.066;2023-07-30T05:48:55;28.60;99.90
43183;DHT22;28802;38.578;-0.066;2023-07-30T05:51:21;28.90;99.90
43183;DHT22;28802;38.578;-0.066;2023-07-30T05:53:47;29.10;99.90
43183;DHT22;28802;38.578;-0.066;2023-07-30T05:56:12;29.50;99.90
43183;DHT22;28802;38.578;-0.066;2023-07-30T05:58:39;29.80;99.90
43183;DHT22;28802;38.578;-0.066;2023-07-30T06:01:05;30.10;99.90
43183;DHT22;28802;38.578;-0.066;2023-07-30T06:03:31;30.40;99.90
43183;DHT22;28802;38.578;-0.066;2023-07-30T06:05:57;30.70;99.90
43183;DHT22;28802;38.578;-0.066;2023-07-30T06:08:23;30.90;99.90
43183;DHT22;28802;38.578;-0.066;2023-07-30T06:10:49;31.30;99.90
43183;DHT22;28802;38.578;-0.066;2023-07-30T06:13:15;31.60;99.90
43183;DHT22;28802;38.578;-0.066;2023-07-30T06:15:41;31.90;99.90
43183;DHT22;28802;38.578;-0.066;2023-07-30T06:18:07;32.20;99.90
43183;DHT22;28802;38.578;-0.066;2023-07-30T06:20:33;32.50;99.90
43183;DHT22;28802;38.578;-0.066;2023-07-30T06:22:59;32.80;99.90
43183;DHT22;28802;38.578;-0.066;2023-07-30T06:25:24;32.90;99.90
43183;DHT22;28802;38.578;-0.066;2023-07-30T06:27:50;33.10;99.90
43183;DHT22;28802;38.578;-0.066;2023-07-30T06:30:17;33.50;99.90
43183;DHT22;28802;38.578;-0.066;2023-07-30T06:32:42;33.60;99.90
43183;DHT22;28802;38.578;-0.066;2023-07-30T06:35:08;33.60;99.90
43183;DHT22;28802;38.578;-0.066;2023-07-30T06:37:34;33.10;99.90
43183;DHT22;28802;38.578;-0.066;2023-07-30T06:40:00;32.90;99.90
43183;DHT22;28802;38.578;-0.066;2023-07-30T06:42:29;32.60;99.90
43183;DHT22;28802;38.578;-0.066;2023-07-30T06:44:55;32.60;99.90
43183;DHT22;28802;38.578;-0.066;2023-07-30T06:47:21;32.20;99.90
43183;DHT22;28802;38.578;-0.066;2023-07-30T06:49:47;30.70;99.90
43183;DHT22;28802;38.578;-0.066;2023-07-30T06:52:13;30.40;99.90
43183;DHT22;28802;38.578;-0.066;2023-07-30T06:54:39;30.40;99.90
43183;DHT22;28802;38.578;-0.066;2023-07-30T06:57:05;30.30;99.90
43183;DHT22;28802;38.578;-0.066;2023-07-30T06:59:31;30.80;99.90
43183;DHT22;28802;38.578;-0.066;2023-07-30T07:01:56;30.40;99.90
43183;DHT22;28802;38.578;-0.066;2023-07-30T07:04:22;30.60;99.90
43183;DHT22;28802;38.578;-0.066;2023-07-30T07:06:48;30.50;99.90
43183;DHT22;28802;38.578;-0.066;2023-07-30T07:09:14;30.30;99.90
43183;DHT22;28802;38.578;-0.066;2023-07-30T07:11:40;30.80;99.90
43183;DHT22;28802;38.578;-0.066;2023-07-30T07:14:06;31.00;99.90
43183;DHT22;28802;38.578;-0.066;2023-07-30T07:16:32;31.10;99.90
43183;DHT22;28802;38.578;-0.066;2023-07-30T07:18:57;30.40;99.90
43183;DHT22;28802;38.578;-0.066;2023-07-30T07:21:23;30.50;99.90
43183;DHT22;28802;38.578;-0.066;2023-07-30T07:23:49;30.50;99.90
43183;DHT22;28802;38.578;-0.066;2023-07-30T07:26:15;30.50;99.90
43183;DHT22;28802;38.578;-0.066;2023-07-30T07:28:41;30.60;99.90
43183;DHT22;28802;38.578;-0.066;2023-07-30T07:31:07;31.00;99.90
43183;DHT22;28802;38.578;-0.066;2023-07-30T07:33:33;30.60;99.90
43183;DHT22;28802;38.578;-0.066;2023-07-30T07:36:06;30.70;99.90
43183;DHT22;28802;38.578;-0.066;2023-07-30T07:38:33;30.60;99.90
43183;DHT22;28802;38.578;-0.066;2023-07-30T07:41:02;31.20;99.90
43183;DHT22;28802;38.578;-0.066;2023-07-30T07:43:28;31.60;99.90
43183;DHT22;28802;38.578;-0.066;2023-07-30T07:45:54;31.00;99.90
43183;DHT22;28802;38.578;-0.066;2023-07-30T07:48:20;31.10;99.90
43183;DHT22;28802;38.578;-0.066;2023-07-30T07:50:46;31.20;99.90
43183;DHT22;28802;38.578;-0.066;2023-07-30T07:53:12;31.30;99.90
43183;DHT22;28802;38.578;-0.066;2023-07-30T07:55:38;31.30;99.90
43183;DHT22;28802;38.578;-0.066;2023-07-30T07:58:03;31.20;99.90
43183;DHT22;28802;38.578;-0.066;2023-07-30T08:00:29;31.20;99.90
43183;DHT22;28802;38.578;-0.066;2023-07-30T08:02:55;31.10;99.90
43183;DHT22;28802;38.578;-0.066;2023-07-30T08:05:21;31.00;99.90
43183;DHT22;28802;38.578;-0.066;2023-07-30T08:07:47;31.40;99.90
43183;DHT22;28802;38.578;-0.066;2023-07-30T08:10:13;31.70;99.90
43183;DHT22;28802;38.578;-0.066;2023-07-30T08:12:39;32.10;99.90
43183;DHT22;28802;38.578;-0.066;2023-07-30T08:15:05;31.90;99.90
43183;DHT22;28802;38.578;-0.066;2023-07-30T08:17:31;32.50;99.90
43183;DHT22;28802;38.578;-0.066;2023-07-30T08:19:57;32.90;99.90
43183;DHT22;28802;38.578;-0.066;2023-07-30T08:22:23;32.90;99.90
43183;DHT22;28802;38.578;-0.066;2023-07-30T08:24:48;32.80;99.90
43183;DHT22;28802;38.578;-0.066;2023-07-30T08:27:14;32.80;99.90
43183;DHT22;28802;38.578;-0.066;2023-07-30T08:29:40;32.90;99.90
43183;DHT22;28802;38.578;-0.066;2023-07-30T08:32:06;32.80;99.90
43183;DHT22;28802;38.578;-0.066;2023-07-30T08:34:32;32.80;99.90
43183;DHT22;28802;38.578;-0.066;2023-07-30T08:36:58;33.20;99.90
43183;DHT22;28802;38.578;-0.066;2023-07-30T08:39:24;33.60;99.90
43183;DHT22;28802;38.578;-0.066;2023-07-30T08:41:50;33.30;99.90
43183;DHT22;28802;38.578;-0.066;2023-07-30T08:44:16;32.80;99.90
43183;DHT22;28802;38.578;-0.066;2023-07-30T08:46:42;32.80;99.90
43183;DHT22;28802;38.578;-0.066;2023-07-30T08:49:08;33.10;99.90
43183;DHT22;28802;38.578;-0.066;2023-07-30T08:51:36;33.20;99.90
43183;DHT22;28802;38.578;-0.066;2023-07-30T08:54:03;33.00;99.90
43183;DHT22;28802;38.578;-0.066;2023-07-30T08:56:30;32.90;99.90
43183;DHT22;28802;38.578;-0.066;2023-07-30T08:58:57;33.10;99.90
43183;DHT22;28802;38.578;-0.066;2023-07-30T09:01:32;32.70;99.90
43183;DHT22;28802;38.578;-0.066;2023-07-30T09:04:00;32.80;99.90
43183;DHT22;28802;38.578;-0.066;2023-07-30T09:06:26;33.30;99.90
43183;DHT22;28802;38.578;-0.066;2023-07-30T09:08:53;33.90;99.90
43183;DHT22;28802;38.578;-0.066;2023-07-30T09:11:18;34.20;99.90
43183;DHT22;28802;38.578;-0.066;2023-07-30T09:13:46;34.10;99.90
43183;DHT22;28802;38.578;-0.066;2023-07-30T09:16:13;34.00;99.90
43183;DHT22;28802;38.578;-0.066;2023-07-30T09:18:40;33.80;99.90
43183;DHT22;28802;38.578;-0.066;2023-07-30T09:21:07;33.70;99.90
43183;DHT22;28802;38.578;-0.066;2023-07-30T09:23:32;33.60;99.90
43183;DHT22;28802;38.578;-0.066;2023-07-30T09:26:04;33.40;99.90
43183;DHT22;28802;38.578;-0.066;2023-07-30T09:28:33;33.10;99.90
43183;DHT22;28802;38.578;-0.066;2023-07-30T09:31:00;32.80;99.90
43183;DHT22;28802;38.578;-0.066;2023-07-30T09:33:27;33.10;99.90
43183;DHT22;28802;38.578;-0.066;2023-07-30T09:35:53;33.60;99.90
43183;DHT22;28802;38.578;-0.066;2023-07-30T09:38:20;34.30;99.90
43183;DHT22;28802;38.578;-0.066;2023-07-30T09:40:46;34.40;99.90
43183;DHT22;28802;38.578;-0.066;2023-07-30T09:43:15;34.40;99.90
43183;DHT22;28802;38.578;-0.066;2023-07-30T09:45:45;34.40;99.90
43183;DHT22;28802;38.578;-0.066;2023-07-30T09:48:14;34.10;99.90
43183;DHT22;28802;38.578;-0.066;2023-07-30T09:50:41;33.70;99.90
43183;DHT22;28802;38.578;-0.066;2023-07-30T09:53:09;33.80;99.90
43183;DHT22;28802;38.578;-0.066;2023-07-30T09:55:36;34.10;99.90
43183;DHT22;28802;38.578;-0.066;2023-07-30T09:58:01;34.30;99.90
43183;DHT22;28802;38.578;-0.066;2023-07-30T10:00:29;35.10;99.90
43183;DHT22;28802;38.578;-0.066;2023-07-30T10:02:55;34.70;99.90
43183;DHT22;28802;38.578;-0.066;2023-07-30T10:05:25;35.00;99.90
43183;DHT22;28802;38.578;-0.066;2023-07-30T10:07:59;35.00;99.90
43183;DHT22;28802;38.578;-0.066;2023-07-30T10:10:28;34.90;99.90
43183;DHT22;28802;38.578;-0.066;2023-07-30T10:12:56;34.30;99.90
43183;DHT22;28802;38.578;-0.066;2023-07-30T10:15:23;34.70;99.90
43183;DHT22;28802;38.578;-0.066;2023-07-30T10:17:50;35.70;99.90
43183;DHT22;28802;38.578;-0.066;2023-07-30T10:20:28;36.70;99.90
43183;DHT22;28802;38.578;-0.066;2023-07-30T10:22:57;37.40;99.90
43183;DHT22;28802;38.578;-0.066;2023-07-30T10:25:30;37.60;99.90
43183;DHT22;28802;38.578;-0.066;2023-07-30T10:27:58;36.70;99.90
43183;DHT22;28802;38.578;-0.066;2023-07-30T10:30:30;36.80;99.90
43183;DHT22;28802;38.578;-0.066;2023-07-30T10:33:04;36.70;99.90
43183;DHT22;28802;38.578;-0.066;2023-07-30T10:35:44;37.10;99.90
43183;DHT22;28802;38.578;-0.066;2023-07-30T10:38:30;36.90;99.90
43183;DHT22;28802;38.578;-0.066;2023-07-30T10:43:39;36.10;99.90
43183;DHT22;28802;38.578;-0.066;2023-07-30T10:46:05;37.00;99.90
43183;DHT22;28802;38.578;-0.066;2023-07-30T10:48:38;37.60;99.90
43183;DHT22;28802;38.578;-0.066;2023-07-30T10:51:15;38.10;99.90
43183;DHT22;28802;38.578;-0.066;2023-07-30T10:53:46;34.80;99.90
43183;DHT22;28802;38.578;-0.066;2023-07-30T10:56:13;33.00;99.90
43183;DHT22;28802;38.578;-0.066;2023-07-30T10:58:39;33.60;99.90
43183;DHT22;28802;38.578;-0.066;2023-07-30T11:01:07;33.50;99.90
43183;DHT22;28802;38.578;-0.066;2023-07-30T11:03:34;33.70;99.90
43183;DHT22;28802;38.578;-0.066;2023-07-30T11:06:01;33.70;99.90
43183;DHT22;28802;38.578;-0.066;2023-07-30T11:10:59;33.60;99.90
43183;DHT22;28802;38.578;-0.066;2023-07-30T11:13:26;33.70;99.90
43183;DHT22;28802;38.578;-0.066;2023-07-30T11:15:52;33.90;99.90
43183;DHT22;28802;38.578;-0.066;2023-07-30T11:18:18;33.20;99.90
43183;DHT22;28802;38.578;-0.066;2023-07-30T11:20:44;33.40;99.90
43183;DHT22;28802;38.578;-0.066;2023-07-30T11:23:20;33.80;99.90
43183;DHT22;28802;38.578;-0.066;2023-07-30T11:25:50;33.30;99.90
43183;DHT22;28802;38.578;-0.066;2023-07-30T11:28:29;33.90;99.90
43183;DHT22;28802;38.578;-0.066;2023-07-30T11:30:58;33.90;99.90
43183;DHT22;28802;38.578;-0.066;2023-07-30T11:33:25;33.60;99.90
43183;DHT22;28802;38.578;-0.066;2023-07-30T11:35:51;33.80;99.90
43183;DHT22;28802;38.578;-0.066;2023-07-30T11:38:17;33.30;99.90
43183;DHT22;28802;38.578;-0.066;2023-07-30T11:40:46;33.50;99.90
43183;DHT22;28802;38.578;-0.066;2023-07-30T11:43:13;33.10;99.90
43183;DHT22;28802;38.578;-0.066;2023-07-30T11:45:39;33.20;99.90
43183;DHT22;28802;38.578;-0.066;2023-07-30T11:48:09;33.10;99.90
43183;DHT22;28802;38.578;-0.066;2023-07-30T11:50:46;32.80;99.90
43183;DHT22;28802;38.578;-0.066;2023-07-30T11:53:12;32.60;99.90
43183;DHT22;28802;38.578;-0.066;2023-07-30T11:55:39;33.00;99.90
43183;DHT22;28802;38.578;-0.066;2023-07-30T11:58:06;33.00;99.90
43183;DHT22;28802;38.578;-0.066;2023-07-30T12:00:33;33.20;99.90
43183;DHT22;28802;38.578;-0.066;2023-07-30T12:03:03;33.10;99.90
43183;DHT22;28802;38.578;-0.066;2023-07-30T12:05:34;32.60;99.90
43183;DHT22;28802;38.578;-0.066;2023-07-30T12:08:04;32.50;99.90
43183;DHT22;28802;38.578;-0.066;2023-07-30T12:10:43;32.60;99.90
43183;DHT22;28802;38.578;-0.066;2023-07-30T12:13:19;32.80;99.90
43183;DHT22;28802;38.578;-0.066;2023-07-30T12:15:54;32.70;99.90
43183;DHT22;28802;38.578;-0.066;2023-07-30T12:18:22;32.50;99.90
43183;DHT22;28802;38.578;-0.066;2023-07-30T12:20:52;32.50;99.90
43183;DHT22;28802;38.578;-0.066;2023-07-30T12:23:20;32.60;99.90
43183;DHT22;28802;38.578;-0.066;2023-07-30T12:25:46;32.50;99.90
43183;DHT22;28802;38.578;-0.066;2023-07-30T12:28:13;32.50;99.90
43183;DHT22;28802;38.578;-0.066;2023-07-30T12:30:39;32.70;99.90
43183;DHT22;28802;38.578;-0.066;2023-07-30T12:33:05;32.60;99.90
43183;DHT22;28802;38.578;-0.066;2023-07-30T12:35:32;32.40;99.90
43183;DHT22;28802;38.578;-0.066;2023-07-30T12:37:59;32.40;99.90
43183;DHT22;28802;38.578;-0.066;2023-07-30T12:40:25;32.50;99.90
43183;DHT22;28802;38.578;-0.066;2023-07-30T12:42:51;32.20;99.90
43183;DHT22;28802;38.578;-0.066;2023-07-30T12:45:17;32.40;99.90
43183;DHT22;28802;38.578;-0.066;2023-07-30T12:47:43;32.30;99.90
43183;DHT22;28802;38.578;-0.066;2023-07-30T12:50:09;32.00;99.90
43183;DHT22;28802;38.578;-0.066;2023-07-30T12:52:35;32.00;99.90
43183;DHT22;28802;38.578;-0.066;2023-07-30T12:55:01;32.20;99.90
43183;DHT22;28802;38.578;-0.066;2023-07-30T12:57:29;32.60;99.90
43183;DHT22;28802;38.578;-0.066;2023-07-30T12:59:55;32.30;99.90
43183;DHT22;28802;38.578;-0.066;2023-07-30T13:02:21;32.30;99.90
43183;DHT22;28802;38.578;-0.066;2023-07-30T13:04:47;32.10;99.90
43183;DHT22;28802;38.578;-0.066;2023-07-30T13:07:13;31.70;99.90
43183;DHT22;28802;38.578;-0.066;2023-07-30T13:09:39;32.00;99.90
43183;DHT22;28802;38.578;-0.066;2023-07-30T13:12:05;31.90;99.90
43183;DHT22;28802;38.578;-0.066;2023-07-30T13:14:31;31.50;99.90
43183;DHT22;28802;38.578;-0.066;2023-07-30T13:16:57;31.40;99.90
43183;DHT22;28802;38.578;-0.066;2023-07-30T13:19:23;31.10;99.90
43183;DHT22;28802;38.578;-0.066;2023-07-30T13:21:49;31.30;99.90
43183;DHT22;28802;38.578;-0.066;2023-07-30T13:24:15;31.30;99.90
43183;DHT22;28802;38.578;-0.066;2023-07-30T13:26:41;31.80;99.90
43183;DHT22;28802;38.578;-0.066;2023-07-30T13:29:07;31.70;99.90
43183;DHT22;28802;38.578;-0.066;2023-07-30T13:31:32;31.60;99.90
43183;DHT22;28802;38.578;-0.066;2023-07-30T13:33:58;31.40;99.90
43183;DHT22;28802;38.578;-0.066;2023-07-30T13:36:24;31.10;99.90
43183;DHT22;28802;38.578;-0.066;2023-07-30T13:38:50;31.00;99.90
43183;DHT22;28802;38.578;-0.066;2023-07-30T13:41:16;31.00;99.90
43183;DHT22;28802;38.578;-0.066;2023-07-30T13:43:42;31.20;99.90
43183;DHT22;28802;38.578;-0.066;2023-07-30T13:46:08;31.10;99.90
43183;DHT22;28802;38.578;-0.066;2023-07-30T13:48:34;30.90;99.90
43183;DHT22;28802;38.578;-0.066;2023-07-30T13:50:59;31.10;99.90
43183;DHT22;28802;38.578;-0.066;2023-07-30T13:53:25;31.00;99.90
43183;DHT22;28802;38.578;-0.066;2023-07-30T13:55:51;30.90;99.90
43183;DHT22;28802;38.578;-0.066;2023-07-30T13:58:17;30.80;99.90
43183;DHT22;28802;38.578;-0.066;2023-07-30T14:00:43;30.80;99.90
43183;DHT22;28802;38.578;-0.066;2023-07-30T14:03:09;30.60;99.90
43183;DHT22;28802;38.578;-0.066;2023-07-30T14:05:37;30.60;99.90
43183;DHT22;28802;38.578;-0.066;2023-07-30T14:08:03;30.50;99.90
43183;DHT22;28802;38.578;-0.066;2023-07-30T14:10:29;30.30;99.90
43183;DHT22;28802;38.578;-0.066;2023-07-30T14:12:55;30.20;99.90
43183;DHT22;28802;38.578;-0.066;2023-07-30T14:15:20;30.10;99.90
43183;DHT22;28802;38.578;-0.066;2023-07-30T14:17:46;30.10;99.90
43183;DHT22;28802;38.578;-0.066;2023-07-30T14:20:12;30.30;99.90
43183;DHT22;28802;38.578;-0.066;2023-07-30T14:22:38;30.60;99.90
43183;DHT22;28802;38.578;-0.066;2023-07-30T14:25:04;30.20;99.90
43183;DHT22;28802;38.578;-0.066;2023-07-30T14:27:30;30.30;99.90
43183;DHT22;28802;38.578;-0.066;2023-07-30T14:29:56;30.20;99.90
43183;DHT22;28802;38.578;-0.066;2023-07-30T14:32:23;30.30;99.90
43183;DHT22;28802;38.578;-0.066;2023-07-30T14:34:49;30.60;99.90
43183;DHT22;28802;38.578;-0.066;2023-07-30T14:37:15;30.80;99.90
43183;DHT22;28802;38.578;-0.066;2023-07-30T14:39:41;31.00;99.90
43183;DHT22;28802;38.578;-0.066;2023-07-30T14:42:07;31.00;99.90
43183;DHT22;28802;38.578;-0.066;2023-07-30T14:44:34;31.00;99.90
43183;DHT22;28802;38.578;-0.066;2023-07-30T14:47:00;31.20;99.90
43183;DHT22;28802;38.578;-0.066;2023-07-30T14:49:28;31.60;99.90
43183;DHT22;28802;38.578;-0.066;2023-07-30T14:51:55;31.60;99.90
43183;DHT22;28802;38.578;-0.066;2023-07-30T14:54:21;31.80;99.90
43183;DHT22;28802;38.578;-0.066;2023-07-30T14:56:46;31.90;99.90
43183;DHT22;28802;38.578;-0.066;2023-07-30T14:59:12;32.10;99.90
43183;DHT22;28802;38.578;-0.066;2023-07-30T15:01:38;31.90;99.90
43183;DHT22;28802;38.578;-0.066;2023-07-30T15:04:04;32.20;99.90
43183;DHT22;28802;38.578;-0.066;2023-07-30T15:06:30;32.20;99.90
43183;DHT22;28802;38.578;-0.066;2023-07-30T15:08:57;31.90;99.90
43183;DHT22;28802;38.578;-0.066;2023-07-30T15:11:22;31.90;99.90
43183;DHT22;28802;38.578;-0.066;2023-07-30T15:13:49;31.70;99.90
43183;DHT22;28802;38.578;-0.066;2023-07-30T15:16:15;31.20;99.90
43183;DHT22;28802;38.578;-0.066;2023-07-30T15:18:41;31.00;99.90